Terminal Aerodrome Forecast
Issued by NWS

Home | Current Version | Previous Version | Text Only | Print | Product List | Glossary On
Versions: 1 2 3 4 5 6 7 8 9 10 11 12 13 14 15 16 17 18 19 20
175
FTAK31 PAJN 111920 AAA
TAFAYA
TAF AMD
PAYA 111920Z 1119/1218 09005KT P6SM BKN050
     FM120000 07008KT P6SM OVC050
      TEMPO 1202/1206 -RA OVC025
     FM120600 07010KT P6SM VCSH OVC050
     FM121000 08004KT P6SM BKN050 OVC080
     FM121600 09008KT P6SM VCSH OVC050
      AMD LTD TO CLD VIS AND WIND 1201/1209=

USA.gov is the U.S. government's official web portal to all federal, state and local government web resources and services.